sensor_id;sensor_type;location;lat;lon;timestamp;pressure;altitude;pressure_sealevel;temperature;humidity
83896;BME280;74045;42.812;74.638;2023-11-22T00:00:09;90546.72;;;12.04;35.53
83896;BME280;74045;42.812;74.638;2023-11-22T00:02:35;90518.84;;;12.00;35.73
83896;BME280;74045;42.812;74.638;2023-11-22T00:05:01;90456.69;;;11.53;35.46
83896;BME280;74045;42.812;74.638;2023-11-22T00:07:28;90502.09;;;11.90;35.37
83896;BME280;74045;42.812;74.638;2023-11-22T00:09:55;90435.22;;;11.51;35.13
83896;BME280;74045;42.812;74.638;2023-11-22T00:12:21;90507.63;;;12.08;35.28
83896;BME280;74045;42.812;74.638;2023-11-22T00:14:47;90508.56;;;12.15;35.87
83896;BME280;74045;42.812;74.638;2023-11-22T00:17:13;90486.53;;;12.18;35.68
83896;BME280;74045;42.812;74.638;2023-11-22T00:19:38;90500.50;;;12.31;35.92
83896;BME280;74045;42.812;74.638;2023-11-22T00:22:05;90499.44;;;12.41;36.31
83896;BME280;74045;42.812;74.638;2023-11-22T00:24:41;90434.88;;;12.00;36.16
83896;BME280;74045;42.812;74.638;2023-11-22T00:27:07;90490.94;;;12.46;35.52
83896;BME280;74045;42.812;74.638;2023-11-22T00:29:34;90488.59;;;12.48;35.66
83896;BME280;74045;42.812;74.638;2023-11-22T00:32:00;90449.44;;;12.30;35.20
83896;BME280;74045;42.812;74.638;2023-11-22T00:34:26;90479.69;;;12.55;35.49
83896;BME280;74045;42.812;74.638;2023-11-22T00:36:52;90402.81;;;11.98;35.38
83896;BME280;74045;42.812;74.638;2023-11-22T00:39:18;90454.41;;;12.41;35.41
83896;BME280;74045;42.812;74.638;2023-11-22T00:41:45;90471.00;;;12.54;35.27
83896;BME280;74045;42.812;74.638;2023-11-22T00:44:11;90480.19;;;12.63;36.08
83896;BME280;74045;42.812;74.638;2023-11-22T00:46:37;90469.91;;;12.65;35.85
83896;BME280;74045;42.812;74.638;2023-11-22T00:49:04;90479.66;;;12.68;35.21
83896;BME280;74045;42.812;74.638;2023-11-22T00:51:33;90484.34;;;12.64;35.24
83896;BME280;74045;42.812;74.638;2023-11-22T00:53:59;90488.78;;;12.67;35.18
83896;BME280;74045;42.812;74.638;2023-11-22T00:56:26;90477.34;;;12.57;36.20
83896;BME280;74045;42.812;74.638;2023-11-22T00:58:52;90481.50;;;12.58;35.81
83896;BME280;74045;42.812;74.638;2023-11-22T01:01:19;90484.56;;;12.57;35.68
83896;BME280;74045;42.812;74.638;2023-11-22T01:03:45;90391.91;;;11.96;35.53
83896;BME280;74045;42.812;74.638;2023-11-22T01:06:12;90442.13;;;12.35;35.65
83896;BME280;74045;42.812;74.638;2023-11-22T01:08:39;90467.91;;;12.69;35.10
83896;BME280;74045;42.812;74.638;2023-11-22T01:11:05;90466.97;;;12.85;34.51
83896;BME280;74045;42.812;74.638;2023-11-22T01:13:32;90469.94;;;13.09;35.03
83896;BME280;74045;42.812;74.638;2023-11-22T01:16:08;90436.63;;;13.08;35.12
83896;BME280;74045;42.812;74.638;2023-11-22T01:18:34;90455.34;;;13.26;34.71
83896;BME280;74045;42.812;74.638;2023-11-22T01:21:00;90438.34;;;13.24;35.84
83896;BME280;74045;42.812;74.638;2023-11-22T01:23:26;90440.59;;;13.25;35.58
83896;BME280;74045;42.812;74.638;2023-11-22T01:25:53;90447.72;;;13.15;35.42
83896;BME280;74045;42.812;74.638;2023-11-22T01:28:19;90445.53;;;13.14;35.93
83896;BME280;74045;42.812;74.638;2023-11-22T01:30:45;90452.81;;;13.01;35.50
83896;BME280;74045;42.812;74.638;2023-11-22T01:33:11;90431.72;;;12.75;35.90
83896;BME280;74045;42.812;74.638;2023-11-22T01:35:37;90467.47;;;12.92;35.67
83896;BME280;74045;42.812;74.638;2023-11-22T01:38:04;90461.78;;;12.81;35.80
83896;BME280;74045;42.812;74.638;2023-11-22T01:40:31;90447.53;;;12.66;35.46
83896;BME280;74045;42.812;74.638;2023-11-22T01:42:58;90420.72;;;12.42;35.84
83896;BME280;74045;42.812;74.638;2023-11-22T01:45:23;90475.00;;;12.94;36.16
83896;BME280;74045;42.812;74.638;2023-11-22T01:47:50;90474.38;;;12.90;36.73
83896;BME280;74045;42.812;74.638;2023-11-22T01:50:17;90491.56;;;12.85;36.30
83896;BME280;74045;42.812;74.638;2023-11-22T01:52:43;90489.56;;;12.76;36.03
83896;BME280;74045;42.812;74.638;2023-11-22T01:55:09;90509.72;;;12.74;36.33
83896;BME280;74045;42.812;74.638;2023-11-22T01:57:35;90516.34;;;12.57;38.18
83896;BME280;74045;42.812;74.638;2023-11-22T02:00:02;90525.59;;;12.52;37.22
83896;BME280;74045;42.812;74.638;2023-11-22T02:02:33;90526.78;;;12.38;38.23
83896;BME280;74045;42.812;74.638;2023-11-22T02:04:59;90548.91;;;12.31;38.42
83896;BME280;74045;42.812;74.638;2023-11-22T02:07:27;90578.69;;;12.23;37.93
83896;BME280;74045;42.812;74.638;2023-11-22T02:09:53;90625.19;;;12.24;38.08
83896;BME280;74045;42.812;74.638;2023-11-22T02:12:19;90680.69;;;12.40;38.09
83896;BME280;74045;42.812;74.638;2023-11-22T02:14:45;90652.06;;;12.09;37.32
83896;BME280;74045;42.812;74.638;2023-11-22T02:17:12;90720.59;;;12.75;36.55
83896;BME280;74045;42.812;74.638;2023-11-22T02:19:38;90739.03;;;12.91;37.08
83896;BME280;74045;42.812;74.638;2023-11-22T02:22:03;90739.56;;;12.86;38.11
83896;BME280;74045;42.812;74.638;2023-11-22T02:24:29;90744.97;;;12.70;38.44
83896;BME280;74045;42.812;74.638;2023-11-22T02:26:55;90745.25;;;12.46;39.83
83896;BME280;74045;42.812;74.638;2023-11-22T02:29:21;90755.75;;;12.21;40.34
83896;BME280;74045;42.812;74.638;2023-11-22T02:31:47;90739.13;;;12.07;40.82
83896;BME280;74045;42.812;74.638;2023-11-22T02:34:13;90734.19;;;11.93;40.57
83896;BME280;74045;42.812;74.638;2023-11-22T02:36:46;90764.09;;;12.06;40.56
83896;BME280;74045;42.812;74.638;2023-11-22T02:39:16;90761.25;;;12.14;40.35
83896;BME280;74045;42.812;74.638;2023-11-22T02:41:42;90710.63;;;11.82;40.30
83896;BME280;74045;42.812;74.638;2023-11-22T02:44:08;90693.69;;;11.80;40.97
83896;BME280;74045;42.812;74.638;2023-11-22T02:46:33;90795.38;;;12.53;41.75
83896;BME280;74045;42.812;74.638;2023-11-22T02:48:59;90798.25;;;12.59;42.27
83896;BME280;74045;42.812;74.638;2023-11-22T02:51:25;90826.44;;;12.66;43.43
83896;BME280;74045;42.812;74.638;2023-11-22T02:53:51;90844.41;;;12.74;45.06
83896;BME280;74045;42.812;74.638;2023-11-22T02:56:17;90856.38;;;12.79;45.14
83896;BME280;74045;42.812;74.638;2023-11-22T02:58:44;90868.50;;;12.80;45.86
83896;BME280;74045;42.812;74.638;2023-11-22T03:01:10;90885.03;;;12.84;46.33
83896;BME280;74045;42.812;74.638;2023-11-22T03:03:35;90898.72;;;12.83;46.37
83896;BME280;74045;42.812;74.638;2023-11-22T03:06:01;90840.78;;;12.39;46.93
83896;BME280;74045;42.812;74.638;2023-11-22T03:08:27;90909.22;;;12.86;47.45
83896;BME280;74045;42.812;74.638;2023-11-22T03:10:53;90928.00;;;12.92;48.14
83896;BME280;74045;42.812;74.638;2023-11-22T03:13:19;90916.59;;;12.79;49.71
83896;BME280;74045;42.812;74.638;2023-11-22T03:15:45;90942.13;;;13.02;51.70
83896;BME280;74045;42.812;74.638;2023-11-22T03:18:11;90924.66;;;12.75;53.79
83896;BME280;74045;42.812;74.638;2023-11-22T03:20:37;90940.66;;;13.01;55.13
83896;BME280;74045;42.812;74.638;2023-11-22T03:23:04;90958.78;;;13.02;56.36
83896;BME280;74045;42.812;74.638;2023-11-22T03:25:30;90983.06;;;13.01;56.35
83896;BME280;74045;42.812;74.638;2023-11-22T03:27:56;90976.56;;;12.89;57.39
83896;BME280;74045;42.812;74.638;2023-11-22T03:30:22;91001.06;;;12.93;56.95
83896;BME280;74045;42.812;74.638;2023-11-22T03:32:48;91009.22;;;12.86;57.50
83896;BME280;74045;42.812;74.638;2023-11-22T03:35:15;91005.75;;;12.72;58.48
83896;BME280;74045;42.812;74.638;2023-11-22T03:37:42;91034.56;;;12.70;57.46
83896;BME280;74045;42.812;74.638;2023-11-22T03:40:11;91038.63;;;12.59;57.87
83896;BME280;74045;42.812;74.638;2023-11-22T03:42:39;91019.25;;;12.45;58.33
83896;BME280;74045;42.812;74.638;2023-11-22T03:45:05;91020.03;;;12.29;57.45
83896;BME280;74045;42.812;74.638;2023-11-22T03:47:32;91044.75;;;12.39;57.36
83896;BME280;74045;42.812;74.638;2023-11-22T03:50:05;91046.06;;;12.31;57.40
83896;BME280;74045;42.812;74.638;2023-11-22T03:52:31;91061.22;;;12.30;57.49
83896;BME280;74045;42.812;74.638;2023-11-22T03:54:58;91038.19;;;12.11;57.83
83896;BME280;74045;42.812;74.638;2023-11-22T03:57:23;91074.22;;;12.25;57.93
83896;BME280;74045;42.812;74.638;2023-11-22T03:59:49;91072.44;;;12.18;58.15
83896;BME280;74045;42.812;74.638;2023-11-22T04:02:15;91083.00;;;12.22;57.93
83896;BME280;74045;42.812;74.638;2023-11-22T04:04:41;91069.38;;;12.03;58.79
83896;BME280;74045;42.812;74.638;2023-11-22T04:07:07;91075.34;;;12.07;58.82
83896;BME280;74045;42.812;74.638;2023-11-22T04:09:33;91084.94;;;12.18;58.57
83896;BME280;74045;42.812;74.638;2023-11-22T04:11:59;91087.34;;;12.12;59.25
83896;BME280;74045;42.812;74.638;2023-11-22T04:14:25;91093.53;;;12.05;59.42
83896;BME280;74045;42.812;74.638;2023-11-22T04:16:53;91094.88;;;12.14;59.22
83896;BME280;74045;42.812;74.638;2023-11-22T04:19:18;91087.72;;;11.94;59.53
83896;BME280;74045;42.812;74.638;2023-11-22T04:21:44;91108.69;;;12.05;59.88
83896;BME280;74045;42.812;74.638;2023-11-22T04:24:10;91108.59;;;12.08;59.58
83896;BME280;74045;42.812;74.638;2023-11-22T04:26:37;91121.63;;;12.19;59.71
83896;BME280;74045;42.812;74.638;2023-11-22T04:29:04;91116.47;;;12.12;60.29
83896;BME280;74045;42.812;74.638;2023-11-22T04:31:30;91114.03;;;12.01;59.81
83896;BME280;74045;42.812;74.638;2023-11-22T04:33:56;91077.78;;;11.78;59.92
83896;BME280;74045;42.812;74.638;2023-11-22T04:36:23;91135.13;;;12.25;60.31
83896;BME280;74045;42.812;74.638;2023-11-22T04:38:49;91124.88;;;12.27;59.99
83896;BME280;74045;42.812;74.638;2023-11-22T04:41:15;91150.53;;;12.30;60.01
83896;BME280;74045;42.812;74.638;2023-11-22T04:43:42;91147.56;;;12.28;60.24
83896;BME280;74045;42.812;74.638;2023-11-22T04:46:10;91148.03;;;12.23;59.96
83896;BME280;74045;42.812;74.638;2023-11-22T04:48:36;91167.00;;;12.38;60.26
83896;BME280;74045;42.812;74.638;2023-11-22T04:51:04;91158.66;;;12.39;60.56
83896;BME280;74045;42.812;74.638;2023-11-22T04:53:30;90950.38;;;11.07;60.75
83896;BME280;74045;42.812;74.638;2023-11-22T04:55:57;91150.59;;;12.46;61.25
83896;BME280;74045;42.812;74.638;2023-11-22T04:58:24;91160.66;;;12.51;61.39
83896;BME280;74045;42.812;74.638;2023-11-22T05:00:50;91169.88;;;12.47;62.64
83896;BME280;74045;42.812;74.638;2023-11-22T05:03:16;91168.34;;;12.46;62.24
83896;BME280;74045;42.812;74.638;2023-11-22T05:05:41;91136.47;;;12.33;62.46
83896;BME280;74045;42.812;74.638;2023-11-22T05:08:07;91157.19;;;12.54;62.29
83896;BME280;74045;42.812;74.638;2023-11-22T05:10:33;91166.47;;;12.63;62.78
83896;BME280;74045;42.812;74.638;2023-11-22T05:12:58;91151.50;;;12.56;63.15
83896;BME280;74045;42.812;74.638;2023-11-22T05:15:26;91162.84;;;12.57;63.67
83896;BME280;74045;42.812;74.638;2023-11-22T05:17:52;91191.88;;;12.80;63.40
83896;BME280;74045;42.812;74.638;2023-11-22T05:20:18;91180.94;;;12.78;64.06
83896;BME280;74045;42.812;74.638;2023-11-22T05:22:44;91179.63;;;13.03;63.63
83896;BME280;74045;42.812;74.638;2023-11-22T05:25:10;91185.16;;;13.25;63.58
83896;BME280;74045;42.812;74.638;2023-11-22T05:27:36;91180.63;;;13.41;63.35
83896;BME280;74045;42.812;74.638;2023-11-22T05:30:02;91175.81;;;13.53;63.36
83896;BME280;74045;42.812;74.638;2023-11-22T05:32:29;91036.31;;;12.61;63.22
83896;BME280;74045;42.812;74.638;2023-11-22T05:34:56;91172.56;;;13.61;63.20
83896;BME280;74045;42.812;74.638;2023-11-22T05:37:22;91013.47;;;12.50;63.46
83896;BME280;74045;42.812;74.638;2023-11-22T05:39:48;91171.16;;;13.57;63.90
83896;BME280;74045;42.812;74.638;2023-11-22T05:42:13;91169.72;;;13.52;64.47
83896;BME280;74045;42.812;74.638;2023-11-22T05:44:39;91168.84;;;13.42;64.20
83896;BME280;74045;42.812;74.638;2023-11-22T05:47:05;91172.34;;;13.39;64.74
83896;BME280;74045;42.812;74.638;2023-11-22T05:49:31;91168.38;;;13.31;64.49
83896;BME280;74045;42.812;74.638;2023-11-22T05:51:56;91171.16;;;13.24;64.87
83896;BME280;74045;42.812;74.638;2023-11-22T05:54:22;91165.09;;;13.24;65.04
83896;BME280;74045;42.812;74.638;2023-11-22T05:56:48;91157.25;;;13.20;65.04
83896;BME280;74045;42.812;74.638;2023-11-22T05:59:14;91171.66;;;13.19;64.88
83896;BME280;74045;42.812;74.638;2023-11-22T06:01:39;91166.03;;;13.17;64.99
83896;BME280;74045;42.812;74.638;2023-11-22T06:04:05;91145.81;;;13.07;64.77
83896;BME280;74045;42.812;74.638;2023-11-22T06:06:31;91089.13;;;12.68;64.98
83896;BME280;74045;42.812;74.638;2023-11-22T06:08:56;91149.44;;;13.13;64.88
83896;BME280;74045;42.812;74.638;2023-11-22T06:11:22;91131.56;;;13.01;65.38
83896;BME280;74045;42.812;74.638;2023-11-22T06:13:48;91139.03;;;13.06;65.24
83896;BME280;74045;42.812;74.638;2023-11-22T06:16:14;91108.28;;;12.92;65.46
83896;BME280;74045;42.812;74.638;2023-11-22T06:18:39;91129.81;;;13.10;65.30
83896;BME280;74045;42.812;74.638;2023-11-22T06:21:09;91108.44;;;13.01;65.32
83896;BME280;74045;42.812;74.638;2023-11-22T06:23:35;91122.19;;;13.12;65.32
83896;BME280;74045;42.812;74.638;2023-11-22T06:26:01;91108.59;;;13.10;65.39
83896;BME280;74045;42.812;74.638;2023-11-22T06:28:27;91116.47;;;13.14;65.13
83896;BME280;74045;42.812;74.638;2023-11-22T06:30:54;91091.44;;;12.98;65.63
83896;BME280;74045;42.812;74.638;2023-11-22T06:33:19;91109.41;;;13.07;65.55
83896;BME280;74045;42.812;74.638;2023-11-22T06:35:45;91077.41;;;12.69;65.79
83896;BME280;74045;42.812;74.638;2023-11-22T06:38:11;91120.94;;;12.68;66.72
83896;BME280;74045;42.812;74.638;2023-11-22T06:40:37;91111.63;;;12.43;67.18
83896;BME280;74045;42.812;74.638;2023-11-22T06:43:02;91087.50;;;12.05;67.81
83896;BME280;74045;42.812;74.638;2023-11-22T06:45:30;91093.38;;;12.13;67.88
83896;BME280;74045;42.812;74.638;2023-11-22T06:47:59;91001.13;;;11.38;68.50
83896;BME280;74045;42.812;74.638;2023-11-22T06:50:24;91050.06;;;11.67;68.92
83896;BME280;74045;42.812;74.638;2023-11-22T06:52:50;91080.72;;;11.84;69.15
83896;BME280;74045;42.812;74.638;2023-11-22T06:55:18;91062.56;;;11.66;69.14
83896;BME280;74045;42.812;74.638;2023-11-22T06:57:44;91074.00;;;11.79;69.23
83896;BME280;74045;42.812;74.638;2023-11-22T07:00:11;91065.53;;;11.88;68.91
83896;BME280;74045;42.812;74.638;2023-11-22T07:02:37;91073.88;;;11.86;69.34
83896;BME280;74045;42.812;74.638;2023-11-22T07:05:04;91066.06;;;11.79;69.71
83896;BME280;74045;42.812;74.638;2023-11-22T07:07:34;91047.88;;;11.61;69.64
83896;BME280;74045;42.812;74.638;2023-11-22T07:10:00;91056.88;;;11.84;69.65
83896;BME280;74045;42.812;74.638;2023-11-22T07:12:26;91028.41;;;11.72;69.67
83896;BME280;74045;42.812;74.638;2023-11-22T07:14:55;91037.34;;;11.78;69.83
83896;BME280;74045;42.812;74.638;2023-11-22T07:17:21;91040.56;;;11.89;69.56
83896;BME280;74045;42.812;74.638;2023-11-22T07:19:48;91031.78;;;11.92;69.67
83896;BME280;74045;42.812;74.638;2023-11-22T07:22:16;91032.88;;;11.95;69.20
83896;BME280;74045;42.812;74.638;2023-11-22T07:24:43;90816.25;;;10.55;69.52
83896;BME280;74045;42.812;74.638;2023-11-22T07:27:14;91010.63;;;11.92;69.60
83896;BME280;74045;42.812;74.638;2023-11-22T07:29:43;90997.38;;;11.92;69.65
83896;BME280;74045;42.812;74.638;2023-11-22T07:32:10;91007.91;;;12.12;69.71
83896;BME280;74045;42.812;74.638;2023-11-22T07:34:36;90985.41;;;11.88;69.90
83896;BME280;74045;42.812;74.638;2023-11-22T07:37:02;91017.28;;;12.17;69.54
83896;BME280;74045;42.812;74.638;2023-11-22T07:39:28;90988.13;;;12.00;69.83
83896;BME280;74045;42.812;74.638;2023-11-22T07:41:55;91006.69;;;12.17;70.01
83896;BME280;74045;42.812;74.638;2023-11-22T07:44:24;90995.25;;;12.03;70.13
83896;BME280;74045;42.812;74.638;2023-11-22T07:46:50;90998.81;;;12.13;69.62
83896;BME280;74045;42.812;74.638;2023-11-22T07:49:25;90906.69;;;11.55;69.79
83896;BME280;74045;42.812;74.638;2023-11-22T07:51:51;90985.34;;;12.07;69.81
83896;BME280;74045;42.812;74.638;2023-11-22T07:54:19;90973.97;;;12.07;69.80
83896;BME280;74045;42.812;74.638;2023-11-22T07:56:51;90969.25;;;12.15;69.81
83896;BME280;74045;42.812;74.638;2023-11-22T07:59:20;90981.19;;;12.23;69.72
83896;BME280;74045;42.812;74.638;2023-11-22T08:01:46;90888.56;;;11.70;69.33
83896;BME280;74045;42.812;74.638;2023-11-22T08:04:14;90964.13;;;12.40;69.45
83896;BME280;74045;42.812;74.638;2023-11-22T08:06:42;90965.38;;;12.52;69.08
83896;BME280;74045;42.812;74.638;2023-11-22T08:09:08;90936.50;;;12.41;69.18
83896;BME280;74045;42.812;74.638;2023-11-22T08:11:35;90946.88;;;12.65;68.58
83896;BME280;74045;42.812;74.638;2023-11-22T08:14:01;90885.34;;;12.28;68.46
83896;BME280;74045;42.812;74.638;2023-11-22T08:16:27;90872.00;;;12.31;68.25
83896;BME280;74045;42.812;74.638;2023-11-22T08:18:53;90922.31;;;12.77;68.21
83896;BME280;74045;42.812;74.638;2023-11-22T08:21:19;90905.44;;;12.71;68.08
83896;BME280;74045;42.812;74.638;2023-11-22T08:23:48;90849.59;;;12.36;67.94
83896;BME280;74045;42.812;74.638;2023-11-22T08:26:14;90916.84;;;12.84;67.66
83896;BME280;74045;42.812;74.638;2023-11-22T08:28:41;90904.94;;;12.76;67.92
83896;BME280;74045;42.812;74.638;2023-11-22T08:31:07;90910.38;;;12.85;67.85
83896;BME280;74045;42.812;74.638;2023-11-22T08:33:53;90911.88;;;12.86;67.72
83896;BME280;74045;42.812;74.638;2023-11-22T08:36:18;90897.66;;;12.80;68.08
83896;BME280;74045;42.812;74.638;2023-11-22T08:38:44;90896.06;;;12.83;67.74
83896;BME280;74045;42.812;74.638;2023-11-22T08:41:10;90871.00;;;12.71;68.02
83896;BME280;74045;42.812;74.638;2023-11-22T08:43:39;90883.00;;;12.75;68.06
83896;BME280;74045;42.812;74.638;2023-11-22T08:46:05;90854.34;;;12.58;68.05
83896;BME280;74045;42.812;74.638;2023-11-22T08:48:32;90871.31;;;12.73;68.06
83896;BME280;74045;42.812;74.638;2023-11-22T08:50:58;90799.81;;;12.15;68.17
83896;BME280;74045;42.812;74.638;2023-11-22T08:53:24;90812.03;;;12.25;68.48
83896;BME280;74045;42.812;74.638;2023-11-22T08:55:50;90873.50;;;12.62;68.32
83896;BME280;74045;42.812;74.638;2023-11-22T08:58:16;90875.94;;;12.56;68.71
83896;BME280;74045;42.812;74.638;2023-11-22T09:00:42;90871.41;;;12.40;68.65
83896;BME280;74045;42.812;74.638;2023-11-22T09:03:11;90872.91;;;12.41;68.57
83896;BME280;74045;42.812;74.638;2023-11-22T09:05:41;90856.06;;;12.35;68.78
83896;BME280;74045;42.812;74.638;2023-11-22T09:08:08;90837.06;;;12.07;68.90
83896;BME280;74045;42.812;74.638;2023-11-22T09:10:39;90841.28;;;12.05;69.28
83896;BME280;74045;42.812;74.638;2023-11-22T09:13:05;90851.28;;;12.14;69.40
83896;BME280;74045;42.812;74.638;2023-11-22T09:15:31;90849.13;;;12.08;69.64
83896;BME280;74045;42.812;74.638;2023-11-22T09:17:59;90842.03;;;12.05;69.94
83896;BME280;74045;42.812;74.638;2023-11-22T09:20:25;90847.81;;;12.00;69.94
83896;BME280;74045;42.812;74.638;2023-11-22T09:22:53;90833.13;;;11.99;69.69
83896;BME280;74045;42.812;74.638;2023-11-22T09:25:26;90832.69;;;12.01;69.89
83896;BME280;74045;42.812;74.638;2023-11-22T09:27:57;90824.44;;;11.99;70.06
83896;BME280;74045;42.812;74.638;2023-11-22T09:30:30;90830.78;;;12.01;70.18
83896;BME280;74045;42.812;74.638;2023-11-22T09:33:08;90828.47;;;12.03;70.38
83896;BME280;74045;42.812;74.638;2023-11-22T09:35:35;90830.59;;;12.08;70.40
83896;BME280;74045;42.812;74.638;2023-11-22T09:38:03;90827.88;;;12.12;70.16
83896;BME280;74045;42.812;74.638;2023-11-22T09:40:29;90828.44;;;12.20;70.08
83896;BME280;74045;42.812;74.638;2023-11-22T09:43:00;90809.56;;;12.18;69.74
83896;BME280;74045;42.812;74.638;2023-11-22T09:45:29;90822.97;;;12.27;69.57
83896;BME280;74045;42.812;74.638;2023-11-22T09:47:55;90816.16;;;12.26;69.52
83896;BME280;74045;42.812;74.638;2023-11-22T09:53:39;90818.81;;;12.26;69.54
83896;BME280;74045;42.812;74.638;2023-11-22T09:56:07;90818.50;;;12.24;69.45
83896;BME280;74045;42.812;74.638;2023-11-22T09:58:34;90817.44;;;12.21;69.40
83896;BME280;74045;42.812;74.638;2023-11-22T10:01:01;90811.06;;;12.19;69.74
83896;BME280;74045;42.812;74.638;2023-11-22T10:03:27;90812.63;;;12.16;69.98
83896;BME280;74045;42.812;74.638;2023-11-22T10:05:56;90804.47;;;12.11;70.23
83896;BME280;74045;42.812;74.638;2023-11-22T10:08:27;90810.41;;;12.15;70.03
83896;BME280;74045;42.812;74.638;2023-11-22T10:10:57;90800.16;;;12.17;69.88
83896;BME280;74045;42.812;74.638;2023-11-22T10:13:23;90796.81;;;12.13;69.95
83896;BME280;74045;42.812;74.638;2023-11-22T10:15:52;90780.16;;;11.99;70.16
83896;BME280;74045;42.812;74.638;2023-11-22T10:18:19;90707.88;;;11.57;69.91
83896;BME280;74045;42.812;74.638;2023-11-22T10:20:47;90790.00;;;12.28;69.83
83896;BME280;74045;42.812;74.638;2023-11-22T10:23:19;90800.66;;;12.41;69.67
83896;BME280;74045;42.812;74.638;2023-11-22T10:25:52;90771.28;;;12.35;68.97
83896;BME280;74045;42.812;74.638;2023-11-22T10:28:18;90797.84;;;12.61;69.59
83896;BME280;74045;42.812;74.638;2023-11-22T10:30:48;90798.81;;;12.67;69.12
83896;BME280;74045;42.812;74.638;2023-11-22T10:33:18;90796.28;;;12.76;68.71
83896;BME280;74045;42.812;74.638;2023-11-22T10:35:49;90794.06;;;12.87;68.27
83896;BME280;74045;42.812;74.638;2023-11-22T10:38:17;90765.63;;;12.75;67.57
83896;BME280;74045;42.812;74.638;2023-11-22T10:40:44;90752.38;;;12.62;67.84
83896;BME280;74045;42.812;74.638;2023-11-22T10:43:16;90767.22;;;12.85;67.01
83896;BME280;74045;42.812;74.638;2023-11-22T10:45:43;90781.03;;;12.93;66.78
83896;BME280;74045;42.812;74.638;2023-11-22T10:48:16;90776.69;;;12.86;67.21
83896;BME280;74045;42.812;74.638;2023-11-22T10:50:46;90772.53;;;12.85;66.94
83896;BME280;74045;42.812;74.638;2023-11-22T10:53:14;90772.22;;;12.83;66.79
83896;BME280;74045;42.812;74.638;2023-11-22T10:55:55;90759.59;;;12.74;66.98
83896;BME280;74045;42.812;74.638;2023-11-22T10:58:23;90762.47;;;12.80;66.73
83896;BME280;74045;42.812;74.638;2023-11-22T11:00:51;90744.63;;;12.68;66.60
83896;BME280;74045;42.812;74.638;2023-11-22T11:03:20;90764.06;;;12.77;66.63
83896;BME280;74045;42.812;74.638;2023-11-22T11:06:02;90749.75;;;12.75;66.79
83896;BME280;74045;42.812;74.638;2023-11-22T11:08:30;90717.25;;;12.45;66.38
83896;BME280;74045;42.812;74.638;2023-11-22T11:10:57;90745.59;;;12.61;66.27
83896;BME280;74045;42.812;74.638;2023-11-22T11:13:25;90751.81;;;12.54;66.46
83896;BME280;74045;42.812;74.638;2023-11-22T11:15:52;90747.59;;;12.57;66.45
83896;BME280;74045;42.812;74.638;2023-11-22T11:18:18;90743.56;;;12.52;65.97
83896;BME280;74045;42.812;74.638;2023-11-22T11:20:52;90754.91;;;12.53;66.19
83896;BME280;74045;42.812;74.638;2023-11-22T11:23:28;90741.66;;;12.53;66.15
83896;BME280;74045;42.812;74.638;2023-11-22T11:25:55;90719.13;;;12.32;66.38
83896;BME280;74045;42.812;74.638;2023-11-22T11:28:47;90731.91;;;12.50;66.33
83896;BME280;74045;42.812;74.638;2023-11-22T11:31:14;90715.88;;;12.28;66.79
83896;BME280;74045;42.812;74.638;2023-11-22T11:36:26;90731.88;;;12.37;66.15
83896;BME280;74045;42.812;74.638;2023-11-22T11:38:53;90699.41;;;12.07;66.29
83896;BME280;74045;42.812;74.638;2023-11-22T11:41:28;90645.94;;;11.71;66.36
83896;BME280;74045;42.812;74.638;2023-11-22T11:43:56;90714.34;;;12.14;66.63
83896;BME280;74045;42.812;74.638;2023-11-22T11:46:22;90736.41;;;12.24;66.65
83896;BME280;74045;42.812;74.638;2023-11-22T11:48:53;90717.22;;;12.20;67.04
83896;BME280;74045;42.812;74.638;2023-11-22T11:51:23;90721.25;;;12.24;66.86
83896;BME280;74045;42.812;74.638;2023-11-22T11:53:53;90592.06;;;11.35;66.88
83896;BME280;74045;42.812;74.638;2023-11-22T11:56:19;90710.44;;;12.19;66.85
83896;BME280;74045;42.812;74.638;2023-11-22T11:58:46;90709.59;;;12.22;67.00
83896;BME280;74045;42.812;74.638;2023-11-22T12:01:12;90655.13;;;11.79;66.70
83896;BME280;74045;42.812;74.638;2023-11-22T12:03:39;90726.97;;;12.23;67.00
83896;BME280;74045;42.812;74.638;2023-11-22T12:06:07;90687.31;;;12.06;67.04
83896;BME280;74045;42.812;74.638;2023-11-22T12:08:34;90714.06;;;12.25;66.55
83896;BME280;74045;42.812;74.638;2023-11-22T12:11:03;90713.31;;;12.24;66.24
83896;BME280;74045;42.812;74.638;2023-11-22T12:13:34;90717.03;;;12.27;66.25
83896;BME280;74045;42.812;74.638;2023-11-22T12:16:04;90646.56;;;11.75;66.00
83896;BME280;74045;42.812;74.638;2023-11-22T12:18:51;90706.22;;;12.34;65.76
83896;BME280;74045;42.812;74.638;2023-11-22T12:21:17;90694.44;;;12.22;65.47
83896;BME280;74045;42.812;74.638;2023-11-22T12:23:44;90702.94;;;12.30;65.38
83896;BME280;74045;42.812;74.638;2023-11-22T12:26:13;90699.47;;;12.33;65.51
83896;BME280;74045;42.812;74.638;2023-11-22T12:28:45;90699.78;;;12.35;65.30
83896;BME280;74045;42.812;74.638;2023-11-22T12:31:12;90698.28;;;12.34;65.11
83896;BME280;74045;42.812;74.638;2023-11-22T12:33:40;90693.41;;;12.32;65.00
83896;BME280;74045;42.812;74.638;2023-11-22T12:36:08;90618.63;;;11.74;65.16
83896;BME280;74045;42.812;74.638;2023-11-22T12:38:40;90682.91;;;12.29;64.74
83896;BME280;74045;42.812;74.638;2023-11-22T12:41:06;90703.38;;;12.41;64.97
83896;BME280;74045;42.812;74.638;2023-11-22T12:43:35;90693.31;;;12.36;64.61
83896;BME280;74045;42.812;74.638;2023-11-22T12:46:03;90699.25;;;12.40;64.48
83896;BME280;74045;42.812;74.638;2023-11-22T12:48:29;90707.09;;;12.44;64.50
83896;BME280;74045;42.812;74.638;2023-11-22T12:50:59;90705.19;;;12.44;64.46
83896;BME280;74045;42.812;74.638;2023-11-22T12:53:25;90709.00;;;12.43;64.27
83896;BME280;74045;42.812;74.638;2023-11-22T12:55:54;90665.22;;;12.13;64.31